sensor_id;sensor_type;location;lat;lon;timestamp;pressure;altitude;pressure_sealevel;temperature;humidity
59337;BME280;45115;52.002;4.686;2023-04-24T00:02:21;100021.19;;;9.56;100.00
59337;BME280;45115;52.002;4.686;2023-04-24T00:04:48;100023.22;;;9.54;100.00
59337;BME280;45115;52.002;4.686;2023-04-24T00:07:15;100025.66;;;9.57;100.00
59337;BME280;45115;52.002;4.686;2023-04-24T00:09:42;100033.44;;;9.52;100.00
59337;BME280;45115;52.002;4.686;2023-04-24T00:12:09;100017.91;;;9.52;100.00
59337;BME280;45115;52.002;4.686;2023-04-24T00:14:35;100032.13;;;9.56;100.00
59337;BME280;45115;52.002;4.686;2023-04-24T00:17:02;100034.69;;;9.57;100.00
59337;BME280;45115;52.002;4.686;2023-04-24T00:19:30;100029.94;;;9.59;100.00
59337;BME280;45115;52.002;4.686;2023-04-24T00:21:57;100033.53;;;9.60;100.00
59337;BME280;45115;52.002;4.686;2023-04-24T00:24:23;100030.81;;;9.60;100.00
59337;BME280;45115;52.002;4.686;2023-04-24T00:26:50;100036.09;;;9.61;100.00
59337;BME280;45115;52.002;4.686;2023-04-24T00:29:16;100032.84;;;9.58;100.00
59337;BME280;45115;52.002;4.686;2023-04-24T00:31:43;100028.41;;;9.57;100.00
59337;BME280;45115;52.002;4.686;2023-04-24T00:34:09;100025.78;;;9.55;100.00
59337;BME280;45115;52.002;4.686;2023-04-24T00:36:38;100030.44;;;9.55;100.00
59337;BME280;45115;52.002;4.686;2023-04-24T00:39:04;100030.59;;;9.53;100.00
59337;BME280;45115;52.002;4.686;2023-04-24T00:41:34;100033.53;;;9.60;100.00
59337;BME280;45115;52.002;4.686;2023-04-24T00:44:00;100029.47;;;9.64;100.00
59337;BME280;45115;52.002;4.686;2023-04-24T00:46:27;100038.84;;;9.61;100.00
59337;BME280;45115;52.002;4.686;2023-04-24T00:48:55;100028.06;;;9.60;100.00
59337;BME280;45115;52.002;4.686;2023-04-24T00:51:22;100032.66;;;9.59;100.00
59337;BME280;45115;52.002;4.686;2023-04-24T00:53:51;100034.00;;;9.55;100.00
59337;BME280;45115;52.002;4.686;2023-04-24T00:56:18;100031.75;;;9.51;100.00
59337;BME280;45115;52.002;4.686;2023-04-24T00:58:45;100036.34;;;9.50;100.00
59337;BME280;45115;52.002;4.686;2023-04-24T01:01:11;100040.09;;;9.49;100.00
59337;BME280;45115;52.002;4.686;2023-04-24T01:03:39;100035.97;;;9.45;100.00
59337;BME280;45115;52.002;4.686;2023-04-24T01:06:06;100037.16;;;9.43;100.00
59337;BME280;45115;52.002;4.686;2023-04-24T01:08:34;100037.38;;;9.49;100.00
59337;BME280;45115;52.002;4.686;2023-04-24T01:11:04;100034.81;;;9.48;100.00
59337;BME280;45115;52.002;4.686;2023-04-24T01:13:31;100028.47;;;9.47;100.00
59337;BME280;45115;52.002;4.686;2023-04-24T01:15:58;100032.06;;;9.48;100.00
59337;BME280;45115;52.002;4.686;2023-04-24T01:18:26;100037.84;;;9.45;100.00
59337;BME280;45115;52.002;4.686;2023-04-24T01:20:57;100031.53;;;9.44;100.00
59337;BME280;45115;52.002;4.686;2023-04-24T01:23:25;100029.78;;;9.43;100.00
59337;BME280;45115;52.002;4.686;2023-04-24T01:25:52;100029.63;;;9.45;100.00
59337;BME280;45115;52.002;4.686;2023-04-24T01:28:19;100035.25;;;9.43;100.00
59337;BME280;45115;52.002;4.686;2023-04-24T01:30:45;100038.16;;;9.42;100.00
59337;BME280;45115;52.002;4.686;2023-04-24T01:33:12;100035.25;;;9.43;100.00
59337;BME280;45115;52.002;4.686;2023-04-24T01:35:39;100037.84;;;9.45;100.00
59337;BME280;45115;52.002;4.686;2023-04-24T01:38:06;100030.13;;;9.40;100.00
59337;BME280;45115;52.002;4.686;2023-04-24T01:40:35;100031.69;;;9.43;100.00
59337;BME280;45115;52.002;4.686;2023-04-24T01:43:02;100033.19;;;9.37;100.00
59337;BME280;45115;52.002;4.686;2023-04-24T01:45:29;100029.72;;;9.35;100.00
59337;BME280;45115;52.002;4.686;2023-04-24T01:47:56;100037.78;;;9.37;100.00
59337;BME280;45115;52.002;4.686;2023-04-24T01:50:23;100034.88;;;9.38;100.00
59337;BME280;45115;52.002;4.686;2023-04-24T01:52:50;100030.91;;;9.33;100.00
59337;BME280;45115;52.002;4.686;2023-04-24T01:55:16;100034.34;;;9.35;100.00
59337;BME280;45115;52.002;4.686;2023-04-24T01:57:45;100032.31;;;9.37;100.00
59337;BME280;45115;52.002;4.686;2023-04-24T02:00:13;100034.00;;;9.38;100.00
59337;BME280;45115;52.002;4.686;2023-04-24T02:02:40;100026.28;;;9.33;100.00
59337;BME280;45115;52.002;4.686;2023-04-24T02:05:07;100028.88;;;9.35;100.00
59337;BME280;45115;52.002;4.686;2023-04-24T02:07:35;100028.81;;;9.27;100.00
59337;BME280;45115;52.002;4.686;2023-04-24T02:10:02;100026.22;;;9.25;100.00
59337;BME280;45115;52.002;4.686;2023-04-24T02:12:31;100022.47;;;9.26;100.00
59337;BME280;45115;52.002;4.686;2023-04-24T02:14:59;100033.63;;;9.33;100.00
59337;BME280;45115;52.002;4.686;2023-04-24T02:17:25;100028.66;;;9.28;100.00
59337;BME280;45115;52.002;4.686;2023-04-24T02:19:52;100026.91;;;9.27;100.00
59337;BME280;45115;52.002;4.686;2023-04-24T02:22:18;100023.34;;;9.27;100.00
59337;BME280;45115;52.002;4.686;2023-04-24T02:24:45;100029.63;;;9.27;100.00
59337;BME280;45115;52.002;4.686;2023-04-24T02:27:14;100030.81;;;9.25;100.00
59337;BME280;45115;52.002;4.686;2023-04-24T02:29:41;100027.22;;;9.24;100.00
59337;BME280;45115;52.002;4.686;2023-04-24T02:32:09;100029.63;;;9.27;100.00
59337;BME280;45115;52.002;4.686;2023-04-24T02:34:37;100032.53;;;9.26;100.00
59337;BME280;45115;52.002;4.686;2023-04-24T02:37:04;100025.69;;;9.22;100.00
59337;BME280;45115;52.002;4.686;2023-04-24T02:39:30;100029.41;;;9.21;100.00
59337;BME280;45115;52.002;4.686;2023-04-24T02:41:57;100031.69;;;9.25;100.00
59337;BME280;45115;52.002;4.686;2023-04-24T02:44:23;100029.56;;;9.19;100.00
59337;BME280;45115;52.002;4.686;2023-04-24T02:46:50;100031.00;;;9.23;100.00
59337;BME280;45115;52.002;4.686;2023-04-24T02:49:18;100030.44;;;9.20;100.00
59337;BME280;45115;52.002;4.686;2023-04-24T02:51:45;100028.03;;;9.17;100.00
59337;BME280;45115;52.002;4.686;2023-04-24T02:54:11;100025.44;;;9.15;100.00
59337;BME280;45115;52.002;4.686;2023-04-24T02:56:38;100030.44;;;9.20;100.00
59337;BME280;45115;52.002;4.686;2023-04-24T02:59:06;100019.13;;;9.15;100.00
59337;BME280;45115;52.002;4.686;2023-04-24T03:01:33;100020.13;;;9.14;100.00
59337;BME280;45115;52.002;4.686;2023-04-24T03:03:59;100019.34;;;9.21;100.00
59337;BME280;45115;52.002;4.686;2023-04-24T03:06:27;100021.94;;;9.23;100.00
59337;BME280;45115;52.002;4.686;2023-04-24T03:08:54;100022.63;;;9.25;100.00
59337;BME280;45115;52.002;4.686;2023-04-24T03:11:20;100025.97;;;9.19;100.00
59337;BME280;45115;52.002;4.686;2023-04-24T03:13:47;100031.44;;;9.19;100.00
59337;BME280;45115;52.002;4.686;2023-04-24T03:16:14;100030.50;;;9.10;100.00
59337;BME280;45115;52.002;4.686;2023-04-24T03:18:40;100024.41;;;8.98;100.00
59337;BME280;45115;52.002;4.686;2023-04-24T03:21:08;100028.16;;;8.97;99.90
59337;BME280;45115;52.002;4.686;2023-04-24T03:23:36;100032.50;;;8.90;99.27
59337;BME280;45115;52.002;4.686;2023-04-24T03:26:03;100034.69;;;8.87;99.44
59337;BME280;45115;52.002;4.686;2023-04-24T03:28:31;100031.28;;;8.85;100.00
59337;BME280;45115;52.002;4.686;2023-04-24T03:31:00;100030.56;;;8.83;100.00
59337;BME280;45115;52.002;4.686;2023-04-24T03:33:30;100028.84;;;8.82;100.00
59337;BME280;45115;52.002;4.686;2023-04-24T03:36:00;100029.16;;;8.79;100.00
59337;BME280;45115;52.002;4.686;2023-04-24T03:38:36;100034.78;;;8.77;100.00
59337;BME280;45115;52.002;4.686;2023-04-24T03:41:17;100033.47;;;8.81;100.00
59337;BME280;45115;52.002;4.686;2023-04-24T03:43:55;100038.94;;;8.81;100.00
59337;BME280;45115;52.002;4.686;2023-04-24T03:46:21;100032.59;;;8.81;100.00
59337;BME280;45115;52.002;4.686;2023-04-24T03:48:55;100046.41;;;8.79;100.00
59337;BME280;45115;52.002;4.686;2023-04-24T03:51:26;100051.72;;;8.81;100.00
59337;BME280;45115;52.002;4.686;2023-04-24T03:54:02;100046.09;;;8.82;100.00
59337;BME280;45115;52.002;4.686;2023-04-24T03:56:30;100045.38;;;8.80;100.00
59337;BME280;45115;52.002;4.686;2023-04-24T03:58:57;100043.50;;;8.81;100.00
59337;BME280;45115;52.002;4.686;2023-04-24T04:01:24;100040.72;;;8.73;100.00
59337;BME280;45115;52.002;4.686;2023-04-24T04:04:08;100042.09;;;8.77;100.00
59337;BME280;45115;52.002;4.686;2023-04-24T04:06:36;100041.69;;;8.72;100.00
59337;BME280;45115;52.002;4.686;2023-04-24T04:09:05;100047.88;;;8.74;100.00
59337;BME280;45115;52.002;4.686;2023-04-24T04:11:32;100043.56;;;8.71;100.00
59337;BME280;45115;52.002;4.686;2023-04-24T04:13:59;100049.50;;;8.67;100.00
59337;BME280;45115;52.002;4.686;2023-04-24T04:16:26;100063.22;;;8.75;100.00
59337;BME280;45115;52.002;4.686;2023-04-24T04:18:58;100056.66;;;8.68;100.00
59337;BME280;45115;52.002;4.686;2023-04-24T04:21:25;100062.13;;;8.68;100.00
59337;BME280;45115;52.002;4.686;2023-04-24T04:24:01;100062.81;;;8.70;100.00
59337;BME280;45115;52.002;4.686;2023-04-24T04:26:34;100068.13;;;8.71;100.00
59337;BME280;45115;52.002;4.686;2023-04-24T04:29:08;100078.63;;;8.76;100.00
59337;BME280;45115;52.002;4.686;2023-04-24T04:31:39;100077.75;;;8.75;100.00
59337;BME280;45115;52.002;4.686;2023-04-24T04:34:10;100087.97;;;8.73;100.00
59337;BME280;45115;52.002;4.686;2023-04-24T04:36:37;100089.69;;;8.74;100.00
59337;BME280;45115;52.002;4.686;2023-04-24T04:39:40;100099.84;;;8.82;100.00
59337;BME280;45115;52.002;4.686;2023-04-24T04:42:13;100099.44;;;8.77;100.00
59337;BME280;45115;52.002;4.686;2023-04-24T04:44:42;100114.81;;;8.78;100.00
59337;BME280;45115;52.002;4.686;2023-04-24T04:47:15;100114.66;;;8.79;100.00
59337;BME280;45115;52.002;4.686;2023-04-24T04:49:42;100114.50;;;8.81;100.00
59337;BME280;45115;52.002;4.686;2023-04-24T04:52:16;100110.03;;;8.80;100.00
59337;BME280;45115;52.002;4.686;2023-04-24T04:54:45;100115.06;;;8.84;100.00
59337;BME280;45115;52.002;4.686;2023-04-24T04:57:13;100123.84;;;8.78;100.00
59337;BME280;45115;52.002;4.686;2023-04-24T04:59:40;100126.09;;;8.92;100.00
59337;BME280;45115;52.002;4.686;2023-04-24T05:02:12;100127.34;;;8.98;100.00
59337;BME280;45115;52.002;4.686;2023-04-24T05:04:39;100130.47;;;9.03;100.00
59337;BME280;45115;52.002;4.686;2023-04-24T05:07:06;100139.84;;;9.00;100.00
59337;BME280;45115;52.002;4.686;2023-04-24T05:09:37;100142.88;;;8.97;100.00
59337;BME280;45115;52.002;4.686;2023-04-24T05:12:05;100153.13;;;8.95;100.00
59337;BME280;45115;52.002;4.686;2023-04-24T05:14:39;100153.56;;;8.91;100.00
59337;BME280;45115;52.002;4.686;2023-04-24T05:17:06;100155.13;;;8.93;100.00
59337;BME280;45115;52.002;4.686;2023-04-24T05:19:32;100159.00;;;8.91;100.00
59337;BME280;45115;52.002;4.686;2023-04-24T05:22:01;100180.47;;;8.86;100.00
59337;BME280;45115;52.002;4.686;2023-04-24T05:24:30;100183.34;;;8.84;100.00
59337;BME280;45115;52.002;4.686;2023-04-24T05:27:06;100196.13;;;8.84;100.00
59337;BME280;45115;52.002;4.686;2023-04-24T05:29:40;100201.03;;;8.80;100.00
59337;BME280;45115;52.002;4.686;2023-04-24T05:32:08;100213.81;;;8.80;100.00
59337;BME280;45115;52.002;4.686;2023-04-24T05:34:34;100220.34;;;8.69;100.00
59337;BME280;45115;52.002;4.686;2023-04-24T05:37:02;100221.94;;;8.62;100.00
59337;BME280;45115;52.002;4.686;2023-04-24T05:39:28;100236.44;;;8.63;100.00
59337;BME280;45115;52.002;4.686;2023-04-24T05:41:55;100248.69;;;8.59;100.00
59337;BME280;45115;52.002;4.686;2023-04-24T05:44:23;100260.72;;;8.56;100.00
59337;BME280;45115;52.002;4.686;2023-04-24T05:46:51;100271.19;;;8.61;100.00
59337;BME280;45115;52.002;4.686;2023-04-24T05:49:18;100269.34;;;8.61;100.00
59337;BME280;45115;52.002;4.686;2023-04-24T05:51:45;100286.16;;;8.57;100.00
59337;BME280;45115;52.002;4.686;2023-04-24T05:54:12;100264.59;;;8.54;100.00
59337;BME280;45115;52.002;4.686;2023-04-24T05:56:39;100306.41;;;8.54;100.00
59337;BME280;45115;52.002;4.686;2023-04-24T05:59:06;100298.94;;;8.56;100.00
59337;BME280;45115;52.002;4.686;2023-04-24T06:01:33;100310.16;;;8.44;99.37
59337;BME280;45115;52.002;4.686;2023-04-24T06:04:11;100320.34;;;8.42;99.73
59337;BME280;45115;52.002;4.686;2023-04-24T06:06:39;100320.22;;;8.43;100.00
59337;BME280;45115;52.002;4.686;2023-04-24T06:09:06;100331.69;;;8.47;100.00
59337;BME280;45115;52.002;4.686;2023-04-24T06:11:33;100338.03;;;8.47;100.00
59337;BME280;45115;52.002;4.686;2023-04-24T06:14:00;100345.34;;;8.47;100.00
59337;BME280;45115;52.002;4.686;2023-04-24T06:16:47;100355.69;;;8.43;100.00
59337;BME280;45115;52.002;4.686;2023-04-24T06:19:26;100363.59;;;8.46;100.00
59337;BME280;45115;52.002;4.686;2023-04-24T06:21:53;100360.88;;;8.46;100.00
59337;BME280;45115;52.002;4.686;2023-04-24T06:24:20;100366.19;;;8.48;99.51
59337;BME280;45115;52.002;4.686;2023-04-24T06:26:46;100379.25;;;8.44;99.98
59337;BME280;45115;52.002;4.686;2023-04-24T06:29:13;100398.94;;;8.48;99.49
59337;BME280;45115;52.002;4.686;2023-04-24T06:31:39;100388.91;;;8.48;99.66
59337;BME280;45115;52.002;4.686;2023-04-24T06:34:06;100394.34;;;8.48;99.47
59337;BME280;45115;52.002;4.686;2023-04-24T06:36:34;100411.56;;;8.49;98.67
59337;BME280;45115;52.002;4.686;2023-04-24T06:39:01;100400.94;;;8.46;98.73
59337;BME280;45115;52.002;4.686;2023-04-24T06:41:28;100418.06;;;8.48;98.71
59337;BME280;45115;52.002;4.686;2023-04-24T06:43:54;100421.91;;;8.45;98.03
59337;BME280;45115;52.002;4.686;2023-04-24T06:46:21;100429.94;;;8.47;97.99
59337;BME280;45115;52.002;4.686;2023-04-24T06:48:49;100438.88;;;8.49;98.74
59337;BME280;45115;52.002;4.686;2023-04-24T06:51:16;100443.34;;;8.50;98.38
59337;BME280;45115;52.002;4.686;2023-04-24T06:53:45;100448.81;;;8.50;98.64
59337;BME280;45115;52.002;4.686;2023-04-24T06:56:11;100462.16;;;8.53;99.06
59337;BME280;45115;52.002;4.686;2023-04-24T06:58:38;100465.91;;;8.52;98.87
59337;BME280;45115;52.002;4.686;2023-04-24T07:01:05;100465.75;;;8.53;98.00
59337;BME280;45115;52.002;4.686;2023-04-24T07:03:31;100468.50;;;8.53;96.32
59337;BME280;45115;52.002;4.686;2023-04-24T07:05:58;100483.13;;;8.52;97.17
59337;BME280;45115;52.002;4.686;2023-04-24T07:08:25;100475.22;;;8.49;97.35
59337;BME280;45115;52.002;4.686;2023-04-24T07:10:53;100489.88;;;8.58;97.82
59337;BME280;45115;52.002;4.686;2023-04-24T07:13:21;100488.03;;;8.58;97.60
59337;BME280;45115;52.002;4.686;2023-04-24T07:15:48;100505.53;;;8.46;97.11
59337;BME280;45115;52.002;4.686;2023-04-24T07:18:16;100504.81;;;8.44;97.38
59337;BME280;45115;52.002;4.686;2023-04-24T07:20:43;100522.06;;;8.45;97.23
59337;BME280;45115;52.002;4.686;2023-04-24T07:23:10;100524.75;;;8.35;98.37
59337;BME280;45115;52.002;4.686;2023-04-24T07:25:36;100519.72;;;8.40;98.16
59337;BME280;45115;52.002;4.686;2023-04-24T07:28:05;100526.22;;;8.49;98.32
59337;BME280;45115;52.002;4.686;2023-04-24T07:30:32;100542.91;;;8.55;97.73
59337;BME280;45115;52.002;4.686;2023-04-24T07:32:59;100532.53;;;8.49;96.82
59337;BME280;45115;52.002;4.686;2023-04-24T07:35:26;100543.63;;;8.57;96.51
59337;BME280;45115;52.002;4.686;2023-04-24T07:37:53;100543.63;;;8.57;95.69
59337;BME280;45115;52.002;4.686;2023-04-24T07:40:20;100534.28;;;8.60;96.76
59337;BME280;45115;52.002;4.686;2023-04-24T07:42:47;100551.25;;;8.63;94.50
59337;BME280;45115;52.002;4.686;2023-04-24T07:45:15;100566.38;;;8.67;94.61
59337;BME280;45115;52.002;4.686;2023-04-24T07:47:42;100562.47;;;8.70;92.92
59337;BME280;45115;52.002;4.686;2023-04-24T07:50:11;100565.50;;;8.76;92.74
59337;BME280;45115;52.002;4.686;2023-04-24T07:52:38;100565.38;;;8.78;92.16
59337;BME280;45115;52.002;4.686;2023-04-24T07:55:05;100576.31;;;8.78;93.50
59337;BME280;45115;52.002;4.686;2023-04-24T07:57:32;100579.63;;;8.81;90.66
59337;BME280;45115;52.002;4.686;2023-04-24T07:59:59;100589.25;;;8.85;89.60
59337;BME280;45115;52.002;4.686;2023-04-24T08:02:27;100591.25;;;8.83;89.75
59337;BME280;45115;52.002;4.686;2023-04-24T08:04:54;100598.69;;;8.72;91.94
59337;BME280;45115;52.002;4.686;2023-04-24T08:07:21;100607.03;;;8.70;91.35
59337;BME280;45115;52.002;4.686;2023-04-24T08:09:47;100608.91;;;8.70;90.77
59337;BME280;45115;52.002;4.686;2023-04-24T08:12:14;100620.41;;;8.73;92.88
59337;BME280;45115;52.002;4.686;2023-04-24T08:14:41;100620.53;;;8.72;90.88
59337;BME280;45115;52.002;4.686;2023-04-24T08:17:07;100621.72;;;8.69;88.81
59337;BME280;45115;52.002;4.686;2023-04-24T08:19:36;100612.19;;;8.64;89.39
59337;BME280;45115;52.002;4.686;2023-04-24T08:22:03;100627.16;;;8.69;90.26
59337;BME280;45115;52.002;4.686;2023-04-24T08:24:30;100633.53;;;8.79;88.11
59337;BME280;45115;52.002;4.686;2023-04-24T08:26:57;100643.72;;;8.77;87.57
59337;BME280;45115;52.002;4.686;2023-04-24T08:29:24;100633.53;;;8.79;86.98
59337;BME280;45115;52.002;4.686;2023-04-24T08:31:51;100656.13;;;8.91;85.59
59337;BME280;45115;52.002;4.686;2023-04-24T08:34:19;100666.94;;;9.02;86.18
59337;BME280;45115;52.002;4.686;2023-04-24T08:36:48;100679.31;;;9.06;86.09
59337;BME280;45115;52.002;4.686;2023-04-24T08:39:14;100666.84;;;9.13;84.58
59337;BME280;45115;52.002;4.686;2023-04-24T08:41:42;100669.97;;;9.09;84.64
59337;BME280;45115;52.002;4.686;2023-04-24T08:44:10;100667.41;;;9.17;81.97
59337;BME280;45115;52.002;4.686;2023-04-24T08:46:37;100675.63;;;9.17;80.49
59337;BME280;45115;52.002;4.686;2023-04-24T08:49:05;100678.22;;;9.18;82.78
59337;BME280;45115;52.002;4.686;2023-04-24T08:51:32;100673.63;;;9.28;80.96
59337;BME280;45115;52.002;4.686;2023-04-24T08:54:01;100678.66;;;9.33;79.40
59337;BME280;45115;52.002;4.686;2023-04-24T08:56:28;100687.09;;;9.11;81.69
59337;BME280;45115;52.002;4.686;2023-04-24T08:58:56;100696.13;;;9.01;80.22
59337;BME280;45115;52.002;4.686;2023-04-24T09:01:25;100685.03;;;8.93;80.62
59337;BME280;45115;52.002;4.686;2023-04-24T09:03:53;100689.84;;;8.80;81.95
59337;BME280;45115;52.002;4.686;2023-04-24T09:06:21;100693.84;;;8.76;83.23
59337;BME280;45115;52.002;4.686;2023-04-24T09:08:49;100693.97;;;8.95;83.74
59337;BME280;45115;52.002;4.686;2023-04-24T09:11:20;100706.84;;;9.24;84.73
59337;BME280;45115;52.002;4.686;2023-04-24T09:13:49;100705.97;;;9.33;82.56
59337;BME280;45115;52.002;4.686;2023-04-24T09:16:15;100700.38;;;9.25;80.89
59337;BME280;45115;52.002;4.686;2023-04-24T09:18:42;100711.97;;;9.17;80.71
59337;BME280;45115;52.002;4.686;2023-04-24T09:21:09;100718.19;;;9.19;79.43
59337;BME280;45115;52.002;4.686;2023-04-24T09:23:36;100718.66;;;8.94;78.54
59337;BME280;45115;52.002;4.686;2023-04-24T09:26:03;100743.06;;;8.86;79.22
59337;BME280;45115;52.002;4.686;2023-04-24T09:28:35;100738.38;;;8.67;81.88
59337;BME280;45115;52.002;4.686;2023-04-24T09:31:06;100736.78;;;8.65;82.80
59337;BME280;45115;52.002;4.686;2023-04-24T09:33:34;100742.47;;;8.82;84.00
59337;BME280;45115;52.002;4.686;2023-04-24T09:36:00;100741.56;;;9.02;80.96
59337;BME280;45115;52.002;4.686;2023-04-24T09:38:31;100753.13;;;9.16;81.49
59337;BME280;45115;52.002;4.686;2023-04-24T09:40:59;100746.91;;;9.14;80.94
59337;BME280;45115;52.002;4.686;2023-04-24T09:43:27;100752.81;;;9.19;81.79
59337;BME280;45115;52.002;4.686;2023-04-24T09:45:57;100746.75;;;9.06;82.00
59337;BME280;45115;52.002;4.686;2023-04-24T09:48:30;100753.41;;;9.13;83.43
59337;BME280;45115;52.002;4.686;2023-04-24T09:50:57;100759.13;;;9.49;81.28
59337;BME280;45115;52.002;4.686;2023-04-24T09:53:24;100768.84;;;10.01;81.42
59337;BME280;45115;52.002;4.686;2023-04-24T09:55:51;100760.38;;;10.33;79.92
59337;BME280;45115;52.002;4.686;2023-04-24T09:58:24;100762.97;;;10.44;75.69
59337;BME280;45115;52.002;4.686;2023-04-24T10:00:54;100766.28;;;10.28;77.37
59337;BME280;45115;52.002;4.686;2023-04-24T10:03:24;100770.41;;;9.94;77.04
59337;BME280;45115;52.002;4.686;2023-04-24T10:05:52;100777.75;;;9.74;75.01
59337;BME280;45115;52.002;4.686;2023-04-24T10:08:20;100782.91;;;9.58;75.16
59337;BME280;45115;52.002;4.686;2023-04-24T10:10:47;100783.00;;;9.47;76.43
59337;BME280;45115;52.002;4.686;2023-04-24T10:13:14;100787.34;;;9.50;78.32
59337;BME280;45115;52.002;4.686;2023-04-24T10:15:41;100809.22;;;9.20;79.29
59337;BME280;45115;52.002;4.686;2023-04-24T10:18:09;100808.63;;;9.16;81.27
59337;BME280;45115;52.002;4.686;2023-04-24T10:20:40;100801.69;;;9.02;83.34
59337;BME280;45115;52.002;4.686;2023-04-24T10:23:07;100810.78;;;9.13;85.91
59337;BME280;45115;52.002;4.686;2023-04-24T10:25:35;100800.03;;;9.21;82.92
59337;BME280;45115;52.002;4.686;2023-04-24T10:28:02;100814.94;;;9.47;81.87
59337;BME280;45115;52.002;4.686;2023-04-24T10:30:30;100810.84;;;9.62;81.83
59337;BME280;45115;52.002;4.686;2023-04-24T10:33:00;100811.22;;;9.57;79.58
59337;BME280;45115;52.002;4.686;2023-04-24T10:35:30;100806.34;;;9.61;78.17
59337;BME280;45115;52.002;4.686;2023-04-24T10:38:02;100807.41;;;9.79;77.15
59337;BME280;45115;52.002;4.686;2023-04-24T10:40:33;100807.56;;;10.06;74.76
59337;BME280;45115;52.002;4.686;2023-04-24T10:43:02;100808.06;;;10.21;73.98
59337;BME280;45115;52.002;4.686;2023-04-24T10:45:31;100810.22;;;10.36;74.05
59337;BME280;45115;52.002;4.686;2023-04-24T10:47:59;100811.78;;;10.48;75.02
59337;BME280;45115;52.002;4.686;2023-04-24T10:50:28;100814.94;;;10.82;73.18
59337;BME280;45115;52.002;4.686;2023-04-24T10:53:07;100809.72;;;10.88;73.50
59337;BME280;45115;52.002;4.686;2023-04-24T10:55:43;100824.28;;;10.98;74.13
59337;BME280;45115;52.002;4.686;2023-04-24T10:58:10;100831.25;;;10.64;73.83
59337;BME280;45115;52.002;4.686;2023-04-24T11:00:38;100828.66;;;10.53;75.15
59337;BME280;45115;52.002;4.686;2023-04-24T11:03:05;100839.19;;;10.58;75.94
59337;BME280;45115;52.002;4.686;2023-04-24T11:05:53;100845.06;;;10.15;77.23
59337;BME280;45115;52.002;4.686;2023-04-24T11:08:24;100850.16;;;9.80;80.53
59337;BME280;45115;52.002;4.686;2023-04-24T11:10:59;100855.56;;;9.51;81.77
59337;BME280;45115;52.002;4.686;2023-04-24T11:13:29;100848.25;;;9.61;81.12
59337;BME280;45115;52.002;4.686;2023-04-24T11:16:21;100856.16;;;10.13;79.02
59337;BME280;45115;52.002;4.686;2023-04-24T11:18:51;100855.91;;;10.74;79.71
59337;BME280;45115;52.002;4.686;2023-04-24T11:21:19;100852.84;;;11.05;73.43
59337;BME280;45115;52.002;4.686;2023-04-24T11:23:48;100844.31;;;11.08;70.78
59337;BME280;45115;52.002;4.686;2023-04-24T11:26:18;100845.03;;;11.47;69.19
59337;BME280;45115;52.002;4.686;2023-04-24T11:28:49;100857.63;;;11.77;67.29
59337;BME280;45115;52.002;4.686;2023-04-24T11:31:35;100856.00;;;11.84;67.71
59337;BME280;45115;52.002;4.686;2023-04-24T11:34:07;100849.72;;;12.18;67.89
59337;BME280;45115;52.002;4.686;2023-04-24T11:36:34;100862.19;;;12.13;65.16
59337;BME280;45115;52.002;4.686;2023-04-24T11:39:02;100864.69;;;11.79;66.70
59337;BME280;45115;52.002;4.686;2023-04-24T11:41:29;100873.94;;;11.78;65.40
59337;BME280;45115;52.002;4.686;2023-04-24T11:43:56;100878.09;;;12.09;66.09
59337;BME280;45115;52.002;4.686;2023-04-24T11:46:27;100873.63;;;11.81;67.56
59337;BME280;45115;52.002;4.686;2023-04-24T11:48:54;100881.09;;;11.52;65.00
59337;BME280;45115;52.002;4.686;2023-04-24T11:51:22;100887.13;;;11.19;67.43
59337;BME280;45115;52.002;4.686;2023-04-24T11:53:49;100886.50;;;11.35;66.72
59337;BME280;45115;52.002;4.686;2023-04-24T11:56:18;100888.25;;;11.72;65.06
59337;BME280;45115;52.002;4.686;2023-04-24T11:58:45;100893.53;;;11.93;65.73
59337;BME280;45115;52.002;4.686;2023-04-24T12:01:13;100897.13;;;11.66;66.36
59337;BME280;45115;52.002;4.686;2023-04-24T12:03:39;100910.09;;;11.74;65.26
59337;BME280;45115;52.002;4.686;2023-04-24T12:06:09;100893.47;;;11.75;66.01
59337;BME280;45115;52.002;4.686;2023-04-24T12:08:37;100909.38;;;11.62;66.26
59337;BME280;45115;52.002;4.686;2023-04-24T12:11:05;100914.00;;;11.71;65.86
59337;BME280;45115;52.002;4.686;2023-04-24T12:13:34;100925.78;;;11.81;66.76
59337;BME280;45115;52.002;4.686;2023-04-24T12:16:03;100900.88;;;11.92;66.44
59337;BME280;45115;52.002;4.686;2023-04-24T12:18:30;100913.91;;;12.35;64.87
59337;BME280;45115;52.002;4.686;2023-04-24T12:21:15;100920.31;;;12.53;64.51
59337;BME280;45115;52.002;4.686;2023-04-24T12:23:43;100918.19;;;12.29;64.47
59337;BME280;45115;52.002;4.686;2023-04-24T12:26:10;100921.50;;;11.69;64.19
59337;BME280;45115;52.002;4.686;2023-04-24T12:28:39;100939.94;;;11.21;69.07
59337;BME280;45115;52.002;4.686;2023-04-24T12:31:06;100944.16;;;10.87;71.34
59337;BME280;45115;52.002;4.686;2023-04-24T12:33:34;100947.31;;;10.73;71.00
59337;BME280;45115;52.002;4.686;2023-04-24T12:36:01;100947.59;;;10.60;70.53
59337;BME280;45115;52.002;4.686;2023-04-24T12:38:29;100950.47;;;10.78;70.56
59337;BME280;45115;52.002;4.686;2023-04-24T12:41:03;100945.00;;;11.06;70.17
59337;BME280;45115;52.002;4.686;2023-04-24T12:43:30;100954.09;;;10.97;70.44
59337;BME280;45115;52.002;4.686;2023-04-24T12:45:58;100948.75;;;11.15;72.17
59337;BME280;45115;52.002;4.686;2023-04-24T12:48:25;100958.38;;;11.28;69.67
59337;BME280;45115;52.002;4.686;2023-04-24T12:50:52;100959.38;;;11.47;67.25
59337;BME280;45115;52.002;4.686;2023-04-24T12:53:18;100958.56;;;11.83;66.49
59337;BME280;45115;52.002;4.686;2023-04-24T12:55:45;100938.44;;;11.65;64.48
59337;BME280;45115;52.002;4.686;2023-04-24T12:58:17;100955.28;;;11.60;63.74
59337;BME280;45115;52.002;4.686;2023-04-24T13:00:44;100963.69;;;11.68;62.67